createdAt,value
2023-06-09T00:00:24.969Z,7.20
2023-06-09T00:02:52.564Z,7.68
2023-06-09T00:05:20.288Z,6.78
2023-06-09T00:07:48.861Z,7.65
2023-06-09T00:10:16.109Z,6.93
2023-06-09T00:12:43.491Z,7.20
2023-06-09T00:15:11.649Z,7.90
2023-06-09T00:17:41.337Z,7.00
2023-06-09T00:20:09.894Z,6.25
2023-06-09T00:22:43.944Z,6.38
2023-06-09T00:25:13.306Z,7.22
2023-06-09T00:27:41.234Z,6.45
2023-06-09T00:30:09.071Z,6.38
2023-06-09T00:32:36.625Z,6.35
2023-06-09T00:35:07.070Z,6.55
2023-06-09T00:37:35.934Z,6.63
2023-06-09T00:40:05.012Z,6.82
2023-06-09T00:42:32.423Z,6.72
2023-06-09T00:44:59.656Z,6.60
2023-06-09T00:47:27.597Z,6.38
2023-06-09T00:49:55.170Z,6.70
2023-06-09T00:52:22.508Z,6.72
2023-06-09T00:54:50.286Z,6.43
2023-06-09T00:57:17.542Z,5.82
2023-06-09T00:59:44.926Z,6.55
2023-06-09T01:02:13.935Z,6.22
2023-06-09T01:04:50.472Z,6.60
2023-06-09T01:07:40.109Z,6.43
2023-06-09T01:10:15.380Z,6.15
2023-06-09T01:12:53.737Z,6.30
2023-06-09T01:15:28.449Z,6.22
2023-06-09T01:18:00.483Z,7.18
2023-06-09T01:20:46.870Z,6.75
2023-06-09T01:23:38.923Z,6.68
2023-06-09T01:26:06.587Z,6.80
2023-06-09T01:28:36.198Z,6.57
2023-06-09T01:31:04.175Z,7.82
2023-06-09T01:33:32.757Z,5.55
2023-06-09T01:36:00.175Z,7.07
2023-06-09T01:38:27.854Z,6.88
2023-06-09T01:40:55.158Z,7.32
2023-06-09T01:43:22.390Z,6.80
2023-06-09T01:45:49.889Z,6.78
2023-06-09T01:48:40.551Z,6.80
2023-06-09T01:51:25.715Z,7.07
2023-06-09T01:53:59.679Z,6.80
2023-06-09T01:56:37.358Z,7.15
2023-06-09T01:59:08.424Z,7.07
2023-06-09T02:01:38.063Z,7.50
2023-06-09T02:04:07.277Z,6.60
2023-06-09T02:06:35.285Z,7.60
2023-06-09T02:09:02.794Z,6.80
2023-06-09T02:11:29.697Z,7.50
2023-06-09T02:13:57.649Z,7.95
2023-06-09T02:16:26.021Z,7.47
2023-06-09T02:18:54.259Z,6.73
2023-06-09T02:21:21.477Z,7.10
2023-06-09T02:23:48.695Z,6.93
2023-06-09T02:26:16.393Z,6.97
2023-06-09T02:28:43.595Z,7.00
2023-06-09T02:31:10.783Z,7.18
2023-06-09T02:33:37.806Z,7.20
2023-06-09T02:36:05.020Z,7.65
2023-06-09T02:38:32.541Z,6.47
2023-06-09T02:40:59.657Z,7.32
2023-06-09T02:43:26.686Z,7.07
2023-06-09T02:45:53.910Z,7.30
2023-06-09T02:48:21.155Z,7.05
2023-06-09T02:50:48.174Z,6.72
2023-06-09T02:53:15.876Z,7.68
2023-06-09T02:55:46.055Z,7.47
2023-06-09T02:58:16.586Z,7.80
2023-06-09T03:00:47.349Z,7.30
2023-06-09T03:03:14.976Z,7.55
2023-06-09T03:05:45.445Z,8.05
2023-06-09T03:08:12.905Z,7.35
2023-06-09T03:10:40.097Z,7.57
2023-06-09T03:13:07.302Z,7.82
2023-06-09T03:15:34.780Z,7.78
2023-06-09T03:18:01.905Z,8.70
2023-06-09T03:20:29.129Z,7.00
2023-06-09T03:22:56.862Z,6.90
2023-06-09T03:25:26.995Z,7.63
2023-06-09T03:27:54.684Z,7.32
2023-06-09T03:30:21.582Z,7.85
2023-06-09T03:32:48.768Z,8.63
2023-06-09T03:35:16.583Z,8.43
2023-06-09T03:37:43.939Z,8.10
2023-06-09T03:40:11.744Z,7.88
2023-06-09T03:42:38.869Z,8.07
2023-06-09T03:45:06.214Z,8.60
2023-06-09T03:47:33.246Z,7.93
2023-06-09T03:50:00.304Z,8.07
2023-06-09T03:52:28.261Z,8.68
2023-06-09T03:54:55.147Z,7.20
2023-06-09T03:57:22.659Z,8.20
2023-06-09T03:59:49.741Z,8.35
2023-06-09T04:02:16.621Z,8.88
2023-06-09T04:04:43.761Z,7.80
2023-06-09T04:07:12.453Z,8.20
2023-06-09T04:09:39.649Z,7.50
2023-06-09T04:12:06.922Z,8.52
2023-06-09T04:14:33.897Z,8.35
2023-06-09T04:17:01.247Z,8.80
2023-06-09T04:19:28.598Z,7.00
2023-06-09T04:21:55.747Z,7.53
2023-06-09T04:24:22.722Z,7.88
2023-06-09T04:26:49.984Z,8.07
2023-06-09T04:29:18.981Z,7.53
2023-06-09T04:31:46.286Z,8.00
2023-06-09T04:34:14.064Z,7.10
2023-06-09T04:36:41.396Z,7.22
2023-06-09T04:39:09.259Z,6.72
2023-06-09T04:41:38.829Z,7.00
2023-06-09T04:44:07.532Z,8.05
2023-06-09T04:46:39.677Z,7.20
2023-06-09T04:49:10.422Z,7.32
2023-06-09T04:51:42.915Z,7.72
2023-06-09T04:54:12.200Z,6.90
2023-06-09T04:56:39.815Z,7.07
2023-06-09T04:59:07.424Z,7.25
2023-06-09T05:01:34.556Z,7.22
2023-06-09T05:04:01.647Z,6.78
2023-06-09T05:06:28.829Z,7.05
2023-06-09T05:08:56.593Z,6.97
2023-06-09T05:11:23.588Z,6.70
2023-06-09T05:13:50.608Z,6.55
2023-06-09T05:16:17.810Z,7.20
2023-06-09T05:18:44.992Z,7.05
2023-06-09T05:21:13.283Z,6.80
2023-06-09T05:23:40.242Z,5.85
2023-06-09T05:26:07.340Z,6.72
2023-06-09T05:28:34.195Z,6.70
2023-06-09T05:31:01.072Z,6.53
2023-06-09T05:33:27.966Z,6.50
2023-06-09T05:35:54.851Z,7.15
2023-06-09T05:38:24.512Z,6.30
2023-06-09T05:40:51.597Z,6.32
2023-06-09T05:43:18.950Z,6.13
2023-06-09T05:45:45.881Z,5.25
2023-06-09T05:48:13.145Z,6.32
2023-06-09T05:50:41.254Z,5.65
2023-06-09T05:53:08.208Z,6.00
2023-06-09T05:55:35.346Z,5.68
2023-06-09T05:58:04.249Z,6.60
2023-06-09T06:00:31.420Z,5.65
2023-06-09T06:03:01.360Z,6.07
2023-06-09T06:05:28.678Z,5.25
2023-06-09T06:07:55.562Z,5.07
2023-06-09T06:10:22.408Z,6.50
2023-06-09T06:12:49.316Z,5.63
2023-06-09T06:15:16.318Z,5.43
2023-06-09T06:17:43.253Z,4.97
2023-06-09T06:20:10.874Z,4.53
2023-06-09T06:22:37.797Z,4.70
2023-06-09T06:25:05.377Z,4.90
2023-06-09T06:27:32.213Z,5.07
2023-06-09T06:29:59.043Z,5.82
2023-06-09T06:32:27.009Z,4.80
2023-06-09T06:34:53.899Z,3.97
2023-06-09T06:37:23.595Z,4.65
2023-06-09T06:39:50.444Z,4.43
2023-06-09T06:42:17.261Z,4.28
2023-06-09T06:44:44.207Z,4.40
2023-06-09T06:47:11.245Z,4.47
2023-06-09T06:49:38.189Z,4.22
2023-06-09T06:52:05.401Z,5.63
2023-06-09T06:54:32.230Z,4.70
2023-06-09T06:56:59.062Z,4.28
2023-06-09T06:59:25.889Z,4.68
2023-06-09T07:01:52.757Z,4.28
2023-06-09T07:04:19.643Z,4.35
2023-06-09T07:06:47.030Z,4.22
2023-06-09T07:09:13.940Z,4.38
2023-06-09T07:11:45.231Z,3.55
2023-06-09T07:14:13.685Z,3.88
2023-06-09T07:16:41.418Z,3.67
2023-06-09T07:19:10.512Z,4.05
2023-06-09T07:21:37.649Z,3.33
2023-06-09T07:24:05.472Z,3.10
2023-06-09T07:26:33.748Z,2.92
2023-06-09T07:29:00.722Z,2.90
2023-06-09T07:31:28.133Z,2.60
2023-06-09T07:33:55.088Z,4.13
2023-06-09T07:36:21.915Z,3.35
2023-06-09T07:38:49.572Z,2.70
2023-06-09T07:41:16.488Z,2.95
2023-06-09T07:43:44.995Z,2.88
2023-06-09T07:46:13.131Z,2.72
2023-06-09T07:48:40.752Z,3.65
2023-06-09T07:51:07.584Z,3.22
2023-06-09T07:53:37.029Z,3.50
2023-06-09T07:56:04.189Z,3.22
2023-06-09T07:58:31.264Z,3.30
2023-06-09T08:00:58.115Z,3.58
2023-06-09T08:03:26.388Z,3.42
2023-06-09T08:05:53.277Z,4.55
2023-06-09T08:08:20.107Z,4.10
2023-06-09T08:10:46.931Z,3.75
2023-06-09T08:13:16.786Z,4.50
2023-06-09T08:15:45.454Z,6.85
2023-06-09T08:18:12.680Z,4.25
2023-06-09T08:20:41.604Z,6.70
2023-06-09T08:23:11.302Z,3.97
2023-06-09T08:25:41.390Z,11.70
2023-06-09T08:28:09.371Z,4.88
2023-06-09T08:30:36.328Z,3.60
2023-06-09T08:33:03.244Z,4.10
2023-06-09T08:35:33.309Z,3.78
2023-06-09T08:38:01.388Z,3.88
2023-06-09T08:40:28.417Z,5.05
2023-06-09T08:42:57.020Z,4.80
2023-06-09T08:45:26.558Z,10.75
2023-06-09T08:48:01.476Z,7.97
2023-06-09T08:50:32.727Z,5.47
2023-06-09T08:53:01.024Z,4.05
2023-06-09T08:55:28.640Z,4.18
2023-06-09T08:57:55.609Z,3.33
2023-06-09T09:00:23.347Z,3.47
2023-06-09T09:02:50.275Z,3.92
2023-06-09T09:05:17.166Z,2.92
2023-06-09T09:07:46.391Z,4.00
2023-06-09T09:10:13.784Z,3.53
2023-06-09T09:12:55.987Z,3.58
2023-06-09T09:15:27.015Z,3.92
2023-06-09T09:17:53.925Z,4.00
2023-06-09T09:20:34.505Z,3.70
2023-06-09T09:23:03.238Z,3.92
2023-06-09T09:25:31.313Z,3.55
2023-06-09T09:28:08.795Z,3.63
2023-06-09T09:30:44.790Z,3.67
2023-06-09T09:33:16.748Z,3.78
2023-06-09T09:35:49.514Z,3.97
2023-06-09T09:38:22.426Z,4.28
2023-06-09T09:40:51.883Z,3.88
2023-06-09T09:43:21.186Z,3.78
2023-06-09T09:45:51.515Z,3.60
2023-06-09T09:48:20.817Z,4.10
2023-06-09T09:50:52.407Z,3.60
2023-06-09T09:53:26.594Z,3.42
2023-06-09T09:55:55.514Z,2.97
2023-06-09T09:58:35.948Z,3.03
2023-06-09T10:01:09.108Z,3.40
2023-06-09T10:03:38.744Z,3.47
2023-06-09T10:06:10.376Z,3.35
2023-06-09T10:08:39.738Z,3.72
2023-06-09T10:11:07.758Z,3.40
2023-06-09T10:13:34.994Z,3.00
2023-06-09T10:16:02.619Z,3.47
2023-06-09T10:18:29.454Z,3.45
2023-06-09T10:20:56.898Z,3.88
2023-06-09T10:23:24.505Z,4.30
2023-06-09T10:25:52.226Z,3.67
2023-06-09T10:28:21.156Z,3.35
2023-06-09T10:30:54.249Z,3.53
2023-06-09T10:33:36.977Z,3.90
2023-06-09T10:36:06.751Z,3.45
2023-06-09T10:38:37.286Z,3.13
2023-06-09T10:41:28.293Z,3.67
2023-06-09T10:44:20.309Z,3.75
2023-06-09T10:46:49.390Z,3.00
2023-06-09T10:49:38.109Z,3.25
2023-06-09T10:52:10.066Z,3.28
2023-06-09T10:54:37.037Z,3.47
2023-06-09T10:57:36.539Z,3.25
2023-06-09T11:00:11.395Z,3.22
2023-06-09T11:02:42.338Z,3.15
2023-06-09T11:05:12.169Z,2.97
2023-06-09T11:07:44.871Z,2.60
2023-06-09T11:10:14.542Z,2.85
2023-06-09T11:12:46.781Z,3.10
2023-06-09T11:15:16.665Z,2.60
2023-06-09T11:17:53.820Z,2.63
2023-06-09T11:20:25.142Z,2.47
2023-06-09T11:22:52.439Z,2.58
2023-06-09T11:25:19.386Z,3.17
2023-06-09T11:27:46.233Z,2.85
2023-06-09T11:30:19.718Z,2.88
2023-06-09T11:33:00.062Z,3.03
2023-06-09T11:35:30.008Z,2.80
2023-06-09T11:37:58.332Z,2.50
2023-06-09T11:40:33.683Z,3.55
2023-06-09T11:43:02.880Z,2.13
2023-06-09T11:45:33.199Z,2.67
2023-06-09T11:48:02.095Z,2.58
2023-06-09T11:50:41.647Z,2.45
2023-06-09T11:53:10.874Z,2.60
2023-06-09T11:55:38.513Z,2.17
2023-06-09T11:58:07.256Z,1.88
2023-06-09T12:00:34.755Z,2.13
2023-06-09T12:03:02.770Z,2.10
2023-06-09T12:05:30.042Z,2.30
2023-06-09T12:07:57.014Z,2.53
2023-06-09T12:10:27.778Z,3.22
2023-06-09T12:12:59.388Z,2.83
2023-06-09T12:15:29.651Z,3.38
2023-06-09T12:18:04.616Z,3.17
2023-06-09T12:20:33.901Z,3.20
2023-06-09T12:23:04.886Z,2.83
2023-06-09T12:25:40.330Z,2.70
2023-06-09T12:28:30.850Z,2.67
2023-06-09T12:31:07.390Z,3.47
2023-06-09T12:33:37.265Z,3.47
2023-06-09T12:36:13.461Z,3.53
2023-06-09T12:38:47.099Z,4.38
2023-06-09T12:41:17.201Z,4.72
2023-06-09T12:44:00.519Z,4.47
2023-06-09T12:46:28.502Z,4.43
2023-06-09T12:49:06.132Z,3.85
2023-06-09T12:51:34.995Z,3.58
2023-06-09T12:54:08.141Z,4.57
2023-06-09T12:56:35.228Z,4.72
2023-06-09T12:59:02.717Z,4.82
2023-06-09T13:01:32.626Z,4.95
2023-06-09T13:03:59.988Z,4.85
2023-06-09T13:06:27.179Z,4.93
2023-06-09T13:08:54.189Z,5.97
2023-06-09T13:11:21.034Z,5.55
2023-06-09T13:13:47.907Z,4.60
2023-06-09T13:16:14.912Z,5.32
2023-06-09T13:18:41.977Z,5.20
2023-06-09T13:21:08.851Z,4.95
2023-06-09T13:23:35.796Z,4.60
2023-06-09T13:26:02.735Z,4.53
2023-06-09T13:28:29.832Z,4.15
2023-06-09T13:30:58.080Z,4.28
2023-06-09T13:33:24.989Z,4.82
2023-06-09T13:35:53.924Z,4.93
2023-06-09T13:38:21.228Z,5.88
2023-06-09T13:40:50.041Z,4.32
2023-06-09T13:43:19.918Z,4.78
2023-06-09T13:45:46.781Z,4.53
2023-06-09T13:48:13.848Z,5.30
2023-06-09T13:50:41.191Z,4.90
2023-06-09T13:53:08.284Z,5.18
2023-06-09T13:55:35.207Z,4.60
2023-06-09T13:58:02.086Z,5.00
2023-06-09T14:00:29.133Z,4.90
2023-06-09T14:02:56.359Z,4.60
2023-06-09T14:05:26.126Z,4.38
2023-06-09T14:07:53.682Z,4.47
2023-06-09T14:10:20.870Z,4.50
2023-06-09T14:12:51.425Z,4.30
2023-06-09T14:15:27.192Z,3.65
2023-06-09T14:17:57.172Z,4.18
2023-06-09T14:20:27.089Z,4.10
2023-06-09T14:22:54.720Z,4.35
2023-06-09T14:25:23.229Z,4.95
2023-06-09T14:27:52.401Z,4.68
2023-06-09T14:30:19.946Z,4.22
2023-06-09T14:32:49.633Z,4.30
2023-06-09T14:35:23.953Z,4.35
2023-06-09T14:38:00.068Z,4.40
2023-06-09T14:40:31.649Z,3.80
2023-06-09T14:42:59.647Z,4.10
2023-06-09T14:45:26.625Z,4.18
2023-06-09T14:47:56.319Z,3.92
2023-06-09T14:50:32.381Z,4.05
2023-06-09T14:53:00.060Z,4.18
2023-06-09T14:55:28.849Z,3.72
2023-06-09T14:57:57.438Z,3.53
2023-06-09T15:00:26.047Z,4.25
2023-06-09T15:02:57.500Z,3.80
2023-06-09T15:05:27.299Z,3.33
2023-06-09T15:07:56.008Z,3.70
2023-06-09T15:10:24.011Z,3.50
2023-06-09T15:12:51.365Z,3.95
2023-06-09T15:15:20.130Z,3.42
2023-06-09T15:17:47.560Z,4.05
2023-06-09T15:20:15.605Z,4.13
2023-06-09T15:22:42.524Z,4.07
2023-06-09T15:25:11.124Z,3.75
2023-06-09T15:27:38.878Z,8.63
2023-06-09T15:30:07.604Z,9.05
2023-06-09T15:32:35.575Z,5.55
2023-06-09T15:35:03.581Z,3.17
2023-06-09T15:37:30.533Z,3.28
2023-06-09T15:39:57.556Z,2.92
2023-06-09T15:42:24.563Z,3.63
2023-06-09T15:44:53.117Z,3.20
2023-06-09T15:47:19.983Z,3.28
2023-06-09T15:49:46.850Z,3.35
2023-06-09T15:52:13.720Z,3.22
2023-06-09T15:54:40.725Z,3.30
2023-06-09T15:57:07.958Z,3.10
2023-06-09T15:59:35.540Z,3.80
2023-06-09T16:02:02.518Z,3.92
2023-06-09T16:04:29.419Z,4.18
2023-06-09T16:06:56.394Z,4.35
2023-06-09T16:09:23.261Z,4.22
2023-06-09T16:11:50.136Z,4.45
2023-06-09T16:14:17.026Z,3.88
2023-06-09T16:16:43.960Z,4.50
2023-06-09T16:19:10.877Z,4.22
2023-06-09T16:21:38.348Z,4.03
2023-06-09T16:24:05.757Z,4.50
2023-06-09T16:26:32.660Z,3.80
2023-06-09T16:28:59.582Z,4.20
2023-06-09T16:31:27.258Z,4.10
2023-06-09T16:33:54.317Z,4.03
2023-06-09T16:36:21.989Z,4.38
2023-06-09T16:38:48.897Z,4.38
2023-06-09T16:41:16.155Z,4.40
2023-06-09T16:43:43.298Z,4.45
2023-06-09T16:46:10.763Z,4.60
2023-06-09T16:48:37.664Z,4.85
2023-06-09T16:51:04.741Z,4.07
2023-06-09T16:53:31.728Z,4.45
2023-06-09T16:55:59.036Z,4.00
2023-06-09T16:58:26.072Z,4.10
2023-06-09T17:00:52.953Z,4.10
2023-06-09T17:03:19.952Z,4.00
2023-06-09T17:05:46.894Z,3.80
2023-06-09T17:08:16.252Z,3.90
2023-06-09T17:10:43.359Z,4.15
2023-06-09T17:13:10.301Z,4.25
2023-06-09T17:15:38.090Z,3.95
2023-06-09T17:18:05.400Z,4.47
2023-06-09T17:20:33.982Z,4.15
2023-06-09T17:23:01.224Z,4.10
2023-06-09T17:25:28.245Z,4.53
2023-06-09T17:27:55.141Z,4.22
2023-06-09T17:30:22.002Z,3.80
2023-06-09T17:32:49.154Z,4.07
2023-06-09T17:35:16.285Z,4.07
2023-06-09T17:37:43.202Z,4.38
2023-06-09T17:40:14.253Z,4.25
2023-06-09T17:42:41.407Z,5.85
2023-06-09T17:45:10.612Z,3.75
2023-06-09T17:47:38.079Z,4.70
2023-06-09T17:50:06.610Z,7.43
2023-06-09T17:52:34.143Z,6.45
2023-06-09T17:55:04.140Z,5.60
2023-06-09T17:57:32.110Z,5.38
2023-06-09T18:00:00.443Z,6.25
2023-06-09T18:02:27.747Z,5.63
2023-06-09T18:04:54.714Z,6.22
2023-06-09T18:07:21.644Z,5.78
2023-06-09T18:09:48.525Z,6.20
2023-06-09T18:12:15.602Z,6.82
2023-06-09T18:14:42.539Z,6.05
2023-06-09T18:17:09.706Z,6.45
2023-06-09T18:19:37.261Z,5.38
2023-06-09T18:22:04.345Z,6.30
2023-06-09T18:24:31.225Z,6.05
2023-06-09T18:26:58.066Z,5.95
2023-06-09T18:29:24.951Z,8.50
2023-06-09T18:31:51.942Z,6.63
2023-06-09T18:34:18.800Z,6.60
2023-06-09T18:36:45.954Z,6.38
2023-06-09T18:39:12.801Z,7.05
2023-06-09T18:41:40.338Z,6.03
2023-06-09T18:44:13.014Z,6.85
2023-06-09T18:46:40.119Z,7.10
2023-06-09T18:49:07.169Z,7.38
2023-06-09T18:51:34.240Z,6.95
2023-06-09T18:54:01.883Z,6.63
2023-06-09T18:56:29.096Z,6.20
2023-06-09T18:58:56.476Z,7.13
2023-06-09T19:01:23.736Z,6.28
2023-06-09T19:03:51.207Z,7.15
2023-06-09T19:06:18.735Z,6.90
2023-06-09T19:08:46.436Z,6.78
2023-06-09T19:11:14.166Z,6.35
2023-06-09T19:13:41.044Z,6.50
2023-06-09T19:16:08.076Z,6.05
2023-06-09T19:18:34.987Z,6.93
2023-06-09T19:21:01.835Z,6.40
2023-06-09T19:23:28.725Z,6.72
2023-06-09T19:25:55.914Z,6.78
2023-06-09T19:28:22.830Z,6.78
2023-06-09T19:30:49.807Z,6.50
2023-06-09T19:33:16.843Z,7.18
2023-06-09T19:35:43.939Z,7.28
2023-06-09T19:38:10.912Z,7.28
2023-06-09T19:40:37.882Z,7.45
2023-06-09T19:43:04.915Z,6.95
2023-06-09T19:45:31.910Z,7.85
2023-06-09T19:47:58.831Z,7.63
2023-06-09T19:50:26.208Z,8.10
2023-06-09T19:52:53.276Z,7.35
2023-06-09T19:55:20.930Z,7.90
2023-06-09T19:57:47.755Z,7.47
2023-06-09T20:00:18.403Z,6.63
2023-06-09T20:02:45.462Z,7.22
2023-06-09T20:05:15.807Z,7.28
2023-06-09T20:07:42.775Z,7.20
2023-06-09T20:10:09.922Z,6.93
2023-06-09T20:12:36.838Z,7.45
2023-06-09T20:15:04.662Z,7.43
2023-06-09T20:17:31.694Z,7.70
2023-06-09T20:19:58.779Z,7.45
2023-06-09T20:22:25.654Z,8.10
2023-06-09T20:24:52.818Z,7.65
2023-06-09T20:27:19.921Z,7.50
2023-06-09T20:29:48.725Z,7.00
2023-06-09T20:32:15.938Z,7.53
2023-06-09T20:34:42.961Z,7.38
2023-06-09T20:37:10.074Z,7.03
2023-06-09T20:39:38.254Z,8.02
2023-06-09T20:42:07.441Z,7.15
2023-06-09T20:44:34.757Z,7.40
2023-06-09T20:47:03.735Z,6.80
2023-06-09T20:49:30.963Z,7.93
2023-06-09T20:51:57.974Z,7.15
2023-06-09T20:54:25.154Z,7.32
2023-06-09T20:56:52.279Z,8.55
2023-06-09T20:59:19.358Z,7.97
2023-06-09T21:01:47.735Z,8.07
2023-06-09T21:04:16.937Z,8.52
2023-06-09T21:06:46.979Z,8.05
2023-06-09T21:09:14.821Z,8.90
2023-06-09T21:11:43.593Z,8.48
2023-06-09T21:14:10.729Z,8.70
2023-06-09T21:16:38.333Z,7.43
2023-06-09T21:19:05.665Z,7.88
2023-06-09T21:21:32.693Z,7.75
2023-06-09T21:23:59.947Z,8.32
2023-06-09T21:26:27.645Z,7.93
2023-06-09T21:28:56.188Z,8.07
2023-06-09T21:31:24.125Z,8.10
2023-06-09T21:33:54.335Z,8.85
2023-06-09T21:36:22.327Z,7.95
2023-06-09T21:38:49.244Z,8.23
2023-06-09T21:41:16.138Z,8.38
2023-06-09T21:43:43.496Z,7.38
2023-06-09T21:46:10.558Z,8.15
2023-06-09T21:48:37.673Z,7.57
2023-06-09T21:51:04.785Z,8.82
2023-06-09T21:53:31.946Z,9.38
2023-06-09T21:55:59.119Z,10.10
2023-06-09T21:58:26.214Z,8.80
2023-06-09T22:00:53.154Z,8.68
2023-06-09T22:03:21.341Z,8.40
2023-06-09T22:05:48.423Z,8.90
2023-06-09T22:08:15.538Z,8.48
2023-06-09T22:10:42.757Z,7.55
2023-06-09T22:13:09.809Z,7.85
2023-06-09T22:15:36.932Z,8.13
2023-06-09T22:18:07.127Z,8.27
2023-06-09T22:20:34.340Z,8.85
2023-06-09T22:23:01.642Z,8.10
2023-06-09T22:25:28.827Z,8.15
2023-06-09T22:27:56.320Z,8.63
2023-06-09T22:30:23.700Z,8.13
2023-06-09T22:32:51.079Z,9.00
2023-06-09T22:35:18.290Z,8.00
2023-06-09T22:37:47.549Z,8.15
2023-06-09T22:40:14.535Z,9.13
2023-06-09T22:42:42.080Z,8.80
2023-06-09T22:45:09.533Z,7.97
2023-06-09T22:47:37.054Z,8.82
2023-06-09T22:50:05.101Z,8.60
2023-06-09T22:52:33.398Z,7.75
2023-06-09T22:55:01.420Z,8.43
2023-06-09T22:57:28.508Z,9.05
2023-06-09T22:59:55.804Z,8.90
2023-06-09T23:02:24.222Z,7.65
2023-06-09T23:04:53.261Z,8.60
2023-06-09T23:07:22.601Z,8.85
2023-06-09T23:09:49.655Z,9.65
2023-06-09T23:12:18.038Z,9.32
2023-06-09T23:14:45.453Z,9.77
2023-06-09T23:17:12.582Z,9.23
2023-06-09T23:19:40.598Z,9.38
2023-06-09T23:22:14.136Z,7.80
2023-06-09T23:24:42.182Z,8.50
2023-06-09T23:27:13.201Z,8.15
2023-06-09T23:29:40.412Z,9.48
2023-06-09T23:32:13.824Z,8.25
2023-06-09T23:34:42.025Z,8.82
2023-06-09T23:37:11.416Z,8.48
2023-06-09T23:39:38.603Z,8.80
2023-06-09T23:42:07.082Z,8.43
2023-06-09T23:44:34.424Z,7.97
2023-06-09T23:47:01.486Z,8.95
2023-06-09T23:49:28.688Z,8.48
2023-06-09T23:51:55.797Z,8.45
2023-06-09T23:54:23.569Z,9.18
2023-06-09T23:56:51.200Z,8.73
2023-06-09T23:59:18.338Z,8.88
